Time;durP1;ratioP1;P1;durP2;ratioP2;P2;SDS_P1;SDS_P2;PMS_P1;PMS_P2;Temp;Humidity;BMP_temperature;BMP_pressure;BME280_temperature;BME280_humidity;BME280_pressure;Samples;Min_cycle;Max_cycle;Signal;HPM_P1;HPM_P2
2024/03/18 00:02:24;;;;;;;;;26.50;24.25;;;;;15.44;85.42;100988.81;5072542;28;45433;-57
2024/03/18 00:04:50;;;;;;;;;30.50;23.25;;;;;15.45;85.59;100990.50;5069994;27;45395;-57
2024/03/18 00:07:15;;;;;;;;;27.50;23.75;;;;;15.45;85.22;100990.50;5061467;28;45396;-55
2024/03/18 00:09:41;;;;;;;;;28.00;22.75;;;;;15.45;85.49;100985.25;5070628;28;45426;-56
2024/03/18 00:12:07;;;;;;;;;26.75;24.75;;;;;15.46;85.22;100986.13;5063699;28;70149;-57
2024/03/18 00:14:32;;;;;;;;;28.00;25.25;;;;;15.46;85.29;100988.75;5069804;27;46076;-55
2024/03/18 00:16:58;;;;;;;;;22.25;21.25;;;;;15.48;85.47;100974.56;5074542;28;45314;-56
2024/03/18 00:19:24;;;;;;;;;32.00;23.75;;;;;15.49;85.35;100972.78;5070429;27;45260;-56
2024/03/18 00:21:49;;;;;;;;;25.75;23.50;;;;;15.49;85.34;100978.06;5076982;28;45399;-55
2024/03/18 00:24:15;;;;;;;;;23.25;20.75;;;;;15.48;85.05;100977.19;5079127;28;46051;-53
2024/03/18 00:26:40;;;;;;;;;28.50;22.25;;;;;15.49;85.08;100975.41;5077791;27;45413;-55
2024/03/18 00:29:06;;;;;;;;;24.75;21.75;;;;;15.49;85.42;100973.66;5065866;27;45280;-58
2024/03/18 00:31:31;;;;;;;;;23.00;21.50;;;;;15.50;85.27;100974.50;5061448;28;73290;-56
2024/03/18 00:33:56;;;;;;;;;24.00;19.00;;;;;15.53;85.24;100974.38;5078275;27;74427;-56
2024/03/18 00:36:22;;;;;;;;;28.25;19.00;;;;;15.53;84.96;100967.31;5073514;28;74785;-56
2024/03/18 00:38:47;;;;;;;;;26.75;21.75;;;;;15.56;85.14;100977.72;5070720;28;50990;-57
2024/03/18 00:43:59;;;;;;;;;12.25;11.75;;;;;15.58;85.00;100967.09;5063180;28;45339;-55
2024/03/18 00:46:25;;;;;;;;;15.00;14.50;;;;;15.59;84.75;100960.06;5075349;28;45953;-56
2024/03/18 00:48:50;;;;;;;;;20.50;18.50;;;;;15.59;84.92;100960.06;5079335;28;45309;-55
2024/03/18 00:51:16;;;;;;;;;12.25;12.00;;;;;15.57;84.53;100960.97;5078972;28;45400;-56
2024/03/18 00:53:41;;;;;;;;;16.00;12.00;;;;;15.55;84.78;100957.53;5067640;27;70655;-57
2024/03/18 00:56:07;;;;;;;;;17.50;17.25;;;;;15.54;84.69;100966.38;5073669;28;45302;-57
2024/03/18 00:58:33;;;;;;;;;18.25;14.25;;;;;15.52;84.67;100962.09;5079319;27;45279;-57
2024/03/18 01:00:59;;;;;;;;;14.00;13.25;;;;;15.52;84.78;100965.59;5078675;28;45160;-56
2024/03/18 01:03:25;;;;;;;;;14.00;12.75;;;;;15.52;84.92;100960.31;5078209;27;46742;-55
2024/03/18 01:05:50;;;;;;;;;14.50;13.00;;;;;15.54;85.00;100961.09;5068879;27;67542;-59
2024/03/18 01:08:15;;;;;;;;;11.75;8.25;;;;;15.56;84.74;100955.75;5062450;28;46872;-55
2024/03/18 01:10:41;;;;;;;;;13.25;11.75;;;;;15.56;84.71;100955.75;5079525;28;45368;-56
2024/03/18 01:13:11;;;;;;;;;13.50;10.50;;;;;15.56;84.66;100968.94;5097902;27;47444;-55
2024/03/18 01:15:37;;;;;;;;;10.00;8.00;;;;;15.55;84.57;100965.47;5073574;28;45438;-57
2024/03/18 01:18:04;;;;;;;;;12.25;10.75;;;;;15.55;84.55;100956.69;5062434;28;45237;-55
2024/03/18 01:20:30;;;;;;;;;11.00;9.25;;;;;15.54;84.58;100947.91;5071406;28;45476;-56
2024/03/18 01:22:55;;;;;;;;;12.25;10.75;;;;;15.52;84.19;100949.75;5070870;27;45506;-57
2024/03/18 01:25:20;;;;;;;;;10.50;10.25;;;;;15.51;84.59;100944.53;5078148;27;74037;-55
2024/03/18 01:27:47;;;;;;;;;12.00;10.50;;;;;15.49;84.19;100939.38;5081937;27;45249;-56
2024/03/18 01:30:14;;;;;;;;;7.50;7.00;;;;;15.47;84.28;100941.19;5076043;27;45496;-55
2024/03/18 01:32:40;;;;;;;;;13.00;10.00;;;;;15.46;84.61;100934.22;5072627;28;45375;-55
2024/03/18 01:35:12;;;;;;;;;13.00;7.25;;;;;15.46;84.43;100933.38;5063680;27;45380;-56
2024/03/18 01:37:38;;;;;;;;;11.75;10.50;;;;;15.44;84.58;100929.91;5065600;28;45325;-57
2024/03/18 01:40:04;;;;;;;;;10.75;10.00;;;;;15.41;85.12;100925.66;5081330;27;45328;-57
2024/03/18 01:42:29;;;;;;;;;11.75;10.75;;;;;15.41;84.63;100933.56;5076584;27;45554;-55
2024/03/18 01:44:55;;;;;;;;;13.25;10.00;;;;;15.40;84.81;100926.56;5065725;27;53802;-56
2024/03/18 01:47:24;;;;;;;;;13.00;10.25;;;;;15.41;84.83;100925.66;5079391;28;45366;-56
2024/03/18 01:49:51;;;;;;;;;9.50;9.00;;;;;15.41;84.70;100916.88;5081381;27;45390;-54
2024/03/18 01:52:17;;;;;;;;;11.00;10.00;;;;;15.39;84.78;100914.31;5075105;27;45642;-55
2024/03/18 01:54:43;;;;;;;;;9.00;9.00;;;;;15.39;84.82;100909.03;5061809;28;45319;-56
2024/03/18 01:57:09;;;;;;;;;14.50;10.75;;;;;15.40;84.80;100904.63;5068123;27;67869;-55
2024/03/18 01:59:34;;;;;;;;;14.00;11.00;;;;;15.39;84.53;100906.41;5062194;28;45536;-56
2024/03/18 02:02:00;;;;;;;;;12.00;11.25;;;;;15.39;84.89;100903.78;5076717;28;46116;-52
2024/03/18 02:04:26;;;;;;;;;12.50;10.00;;;;;15.40;84.82;100899.34;5074332;27;45383;-56
2024/03/18 02:06:51;;;;;;;;;16.25;12.25;;;;;15.39;84.89;100895.84;5065159;27;46993;-57
2024/03/18 02:09:18;;;;;;;;;13.25;10.75;;;;;15.37;84.46;100888.00;5069103;28;45573;-55
2024/03/18 02:11:43;;;;;;;;;12.00;9.75;;;;;15.37;84.68;100884.53;5079430;28;46457;-55
2024/03/18 02:14:15;;;;;;;;;10.25;8.50;;;;;15.37;84.79;100879.25;5060622;28;45234;-56
2024/03/18 02:16:41;;;;;;;;;11.25;9.25;;;;;15.34;85.00;100882.88;5076346;28;45347;-54
2024/03/18 02:19:06;;;;;;;;;11.25;10.75;;;;;15.33;84.72;100875.91;5081115;27;45462;-56
2024/03/18 02:21:32;;;;;;;;;6.75;6.25;;;;;15.31;84.47;100877.72;5064513;27;74732;-56
2024/03/18 02:23:57;;;;;;;;;9.75;9.50;;;;;15.26;84.51;100877.06;5068157;27;73424;-56
2024/03/18 02:26:23;;;;;;;;;12.00;9.50;;;;;15.22;84.84;100880.78;5073934;27;68201;-55
2024/03/18 02:28:48;;;;;;;;;11.50;9.25;;;;;15.21;84.93;100880.84;5066388;28;66173;-56
2024/03/18 02:31:14;;;;;;;;;9.75;9.50;;;;;15.17;84.98;100885.38;5060942;28;46812;-55
2024/03/18 02:33:40;;;;;;;;;8.75;8.75;;;;;15.11;85.28;100878.59;5090595;27;45493;-54
2024/03/18 02:36:05;;;;;;;;;12.25;9.75;;;;;15.10;85.31;100876.03;5074235;28;45356;-57
2024/03/18 02:38:32;;;;;;;;;11.00;10.00;;;;;15.08;85.24;100876.09;5065120;27;60859;-56
2024/03/18 02:40:57;;;;;;;;;19.00;17.00;;;;;15.06;85.65;100877.94;5075630;27;46140;-56
2024/03/18 02:43:22;;;;;;;;;12.25;12.25;;;;;15.07;85.79;100879.69;5070061;28;72035;-54
2024/03/18 02:45:48;;;;;;;;;11.00;10.00;;;;;15.08;85.67;100878.72;5077087;28;51078;-57
2024/03/18 02:48:13;;;;;;;;;11.00;9.75;;;;;15.09;86.13;100883.09;5061183;27;45484;-56
2024/03/18 02:50:39;;;;;;;;;12.50;10.50;;;;;15.11;85.36;100893.56;5062553;28;71513;-54
2024/03/18 02:53:06;;;;;;;;;9.25;8.75;;;;;15.12;85.74;100903.19;5066670;27;45397;-54
2024/03/18 02:55:31;;;;;;;;;12.00;9.50;;;;;15.14;85.90;100899.56;5074346;27;45362;-55
2024/03/18 02:57:57;;;;;;;;;14.50;12.25;;;;;15.16;85.79;100899.50;5078535;27;47201;-55
2024/03/18 03:00:22;;;;;;;;;12.00;12.00;;;;;15.18;85.70;100898.50;5075222;27;46231;-56
2024/03/18 03:02:47;;;;;;;;;12.75;11.00;;;;;15.18;85.88;100900.28;5064115;27;55565;-55
2024/03/18 03:05:13;;;;;;;;;14.25;11.75;;;;;15.19;85.55;100899.34;5080327;27;45502;-55
2024/03/18 03:07:38;;;;;;;;;9.25;6.25;;;;;15.19;85.57;100884.41;5056543;28;64659;-56
2024/03/18 03:10:04;;;;;;;;;9.50;8.00;;;;;15.16;85.60;100889.81;5065464;27;61086;-57
2024/03/18 03:12:30;;;;;;;;;13.50;9.25;;;;;15.14;85.66;100889.03;5078889;27;45301;-55
2024/03/18 03:14:56;;;;;;;;;11.75;10.00;;;;;15.11;85.58;100886.50;5074558;27;45840;-54
2024/03/18 03:17:23;;;;;;;;;9.75;8.00;;;;;15.07;85.88;100877.03;5064592;27;45397;-57
2024/03/18 03:19:49;;;;;;;;;11.00;9.00;;;;;15.07;85.77;100884.94;5080157;27;46351;-55
2024/03/18 03:22:14;;;;;;;;;8.25;8.00;;;;;15.07;85.98;100887.59;5072830;27;46215;-55
2024/03/18 03:24:40;;;;;;;;;8.50;6.50;;;;;15.06;85.78;100890.28;5093305;27;68431;-54
2024/03/18 03:27:06;;;;;;;;;11.25;8.75;;;;;15.06;86.16;100882.38;5073425;27;45481;-55
2024/03/18 03:29:31;;;;;;;;;10.00;9.00;;;;;15.05;86.23;100883.28;5076403;28;46516;-55
2024/03/18 03:31:57;;;;;;;;;9.00;9.00;;;;;15.04;86.27;100885.06;5066618;27;45357;-56
2024/03/18 03:34:22;;;;;;;;;9.50;8.00;;;;;15.05;86.32;100891.19;5072794;28;45295;-54
2024/03/18 03:36:47;;;;;;;;;11.00;9.00;;;;;15.05;86.20;100897.34;5077516;28;68830;-54
2024/03/18 03:39:13;;;;;;;;;13.75;11.00;;;;;15.06;86.20;100906.09;5075249;27;74479;-56
2024/03/18 03:41:39;;;;;;;;;7.00;7.00;;;;;15.06;86.14;100914.84;5076056;28;45440;-54
2024/03/18 03:44:04;;;;;;;;;8.25;6.00;;;;;15.05;86.38;100915.78;5060386;28;45321;-57
2024/03/18 03:46:30;;;;;;;;;11.25;9.75;;;;;15.04;86.54;100913.22;5076104;28;58508;-51
2024/03/18 03:48:56;;;;;;;;;10.50;10.00;;;;;15.03;86.68;100920.25;5068182;27;46216;-54
2024/03/18 03:51:22;;;;;;;;;11.25;8.00;;;;;15.03;86.29;100919.41;5074558;27;45268;-55
2024/03/18 03:53:47;;;;;;;;;12.00;9.50;;;;;14.99;86.33;100929.22;5067648;27;68617;-55
2024/03/18 03:56:12;;;;;;;;;11.75;10.00;;;;;14.93;86.35;100924.22;5067088;28;45359;-55
2024/03/18 03:58:40;;;;;;;;;13.50;9.25;;;;;14.89;86.61;100927.88;5063512;27;75669;-55
2024/03/18 04:01:05;;;;;;;;;15.50;9.75;;;;;14.86;86.52;100930.66;5060758;28;45483;-55
2024/03/18 04:03:31;;;;;;;;;13.75;12.25;;;;;14.81;86.88;100944.88;5077434;28;56950;-58
2024/03/18 04:05:56;;;;;;;;;13.75;12.00;;;;;14.76;86.97;100949.47;5079518;27;45497;-57
2024/03/18 04:08:22;;;;;;;;;11.25;11.00;;;;;14.76;86.96;100941.56;5078758;28;75763;-55
2024/03/18 04:10:49;;;;;;;;;12.00;10.00;;;;;14.73;87.19;100954.88;5065311;27;45387;-55
2024/03/18 04:13:15;;;;;;;;;11.50;11.50;;;;;14.69;87.61;100939.25;5069837;28;45485;-52
2024/03/18 04:15:41;;;;;;;;;10.25;10.25;;;;;14.67;87.41;100951.63;5079016;27;45200;-51
2024/03/18 04:18:08;;;;;;;;;8.75;8.50;;;;;14.67;87.93;100959.53;5079440;27;46191;-53
2024/03/18 04:20:34;;;;;;;;;13.50;11.50;;;;;14.69;88.06;100952.41;5078725;27;45254;-55
2024/03/18 04:23:00;;;;;;;;;12.50;11.50;;;;;14.73;88.10;100957.53;5079189;27;45441;-54
2024/03/18 04:25:25;;;;;;;;;11.00;8.75;;;;;14.77;87.81;100955.63;5064526;27;45269;-56
2024/03/18 04:27:51;;;;;;;;;11.25;11.25;;;;;14.77;87.59;100961.72;5067645;27;64235;-56
2024/03/18 04:30:19;;;;;;;;;14.25;11.25;;;;;14.76;87.60;100956.53;5065869;28;45342;-57
2024/03/18 04:32:50;;;;;;;;;13.50;12.50;;;;;14.75;87.14;100954.78;5059641;28;45303;-57
2024/03/18 04:35:18;;;;;;;;;13.75;13.00;;;;;14.73;87.61;100964.53;5070168;28;46412;-54
2024/03/18 04:37:46;;;;;;;;;13.50;12.25;;;;;14.69;87.21;100963.81;5073189;28;46147;-57
2024/03/18 04:40:13;;;;;;;;;16.25;14.25;;;;;14.68;87.51;100971.78;5060291;28;45489;-55
2024/03/18 04:42:39;;;;;;;;;18.25;15.50;;;;;14.63;87.30;100964.06;5080409;28;45453;-56
2024/03/18 04:45:05;;;;;;;;;16.00;14.50;;;;;14.60;87.85;100977.34;5079562;27;45454;-56
2024/03/18 04:47:32;;;;;;;;;13.75;13.00;;;;;14.59;87.42;100968.59;5064995;27;48133;-55
2024/03/18 04:49:57;;;;;;;;;12.50;11.25;;;;;14.57;87.67;100977.44;5062717;28;45848;-55
2024/03/18 04:52:22;;;;;;;;;16.00;14.50;;;;;14.52;87.67;100975.00;5066801;28;68146;-56
2024/03/18 04:54:48;;;;;;;;;15.00;11.50;;;;;14.50;87.67;100971.56;5074815;27;73567;-55
2024/03/18 04:57:13;;;;;;;;;16.25;13.00;;;;;14.51;87.93;100972.44;5074129;28;74521;-54
2024/03/18 04:59:39;;;;;;;;;15.75;13.25;;;;;14.50;87.99;100968.94;5078478;28;45288;-54
2024/03/18 05:02:05;;;;;;;;;17.50;13.75;;;;;14.51;87.70;100978.53;5074520;28;45474;-54
2024/03/18 05:04:31;;;;;;;;;16.50;13.50;;;;;14.50;87.67;100978.59;5073869;27;45648;-55
2024/03/18 05:06:56;;;;;;;;;17.50;13.75;;;;;14.48;87.64;100973.38;5081489;27;46966;-56
2024/03/18 05:09:22;;;;;;;;;15.25;13.50;;;;;14.43;87.85;100978.00;5073422;28;72846;-52
2024/03/18 05:11:47;;;;;;;;;16.75;14.25;;;;;14.38;87.70;100979.97;5081413;27;64340;-55
2024/03/18 05:14:12;;;;;;;;;18.25;14.25;;;;;14.33;87.62;100984.53;5073202;27;70153;-55
2024/03/18 05:16:39;;;;;;;;;18.25;14.75;;;;;14.25;87.75;100992.72;5066272;28;51133;-56
2024/03/18 05:19:05;;;;;;;;;15.25;14.50;;;;;14.20;87.74;101002.56;5080312;28;45832;-55
2024/03/18 05:21:31;;;;;;;;;15.00;15.00;;;;;14.18;87.99;100997.38;5082446;27;45420;-55
2024/03/18 05:23:56;;;;;;;;;21.00;17.50;;;;;14.17;88.36;101000.91;5073737;27;46086;-56
2024/03/18 05:26:22;;;;;;;;;22.00;18.25;;;;;14.18;88.18;101012.28;5074555;27;45297;-55
2024/03/18 05:28:47;;;;;;;;;16.00;15.00;;;;;14.14;88.21;101002.81;5079966;27;45320;-54
2024/03/18 05:31:12;;;;;;;;;18.25;17.75;;;;;14.11;88.06;100998.53;5067970;28;67804;-56
2024/03/18 05:33:38;;;;;;;;;19.00;17.00;;;;;14.11;88.30;101009.06;5081724;28;45236;-54
2024/03/18 05:36:04;;;;;;;;;20.00;18.00;;;;;14.07;88.03;101003.94;5081201;27;69636;-56
2024/03/18 05:38:29;;;;;;;;;24.00;19.00;;;;;14.01;88.40;101008.53;5061724;28;45237;-56
2024/03/18 05:40:54;;;;;;;;;22.00;19.75;;;;;13.98;88.08;101008.63;5072901;28;69726;-55
2024/03/18 05:43:20;;;;;;;;;25.00;20.75;;;;;13.98;88.49;101010.41;5074570;27;72106;-55
2024/03/18 05:45:45;;;;;;;;;19.25;16.00;;;;;13.97;88.55;101006.94;5080513;27;73924;-56
2024/03/18 05:48:11;;;;;;;;;17.25;17.25;;;;;13.98;88.10;101015.66;5069012;27;45180;-55
2024/03/18 05:50:37;;;;;;;;;21.25;16.75;;;;;13.96;88.31;101020.97;5061659;28;45254;-56
2024/03/18 05:53:03;;;;;;;;;20.75;19.00;;;;;13.96;88.44;101028.88;5071597;28;45350;-54
2024/03/18 05:55:28;;;;;;;;;20.75;16.00;;;;;13.92;88.44;101024.66;5063253;28;47065;-56
2024/03/18 05:57:57;;;;;;;;;17.75;15.50;;;;;13.88;88.39;101028.28;5080756;28;45289;-56
2024/03/18 06:00:23;;;;;;;;;15.50;11.00;;;;;13.80;88.25;101019.84;5070935;28;45497;-56
2024/03/18 06:02:49;;;;;;;;;20.00;17.25;;;;;13.73;88.09;101024.44;5074292;27;45366;-57
2024/03/18 06:05:14;;;;;;;;;21.00;17.00;;;;;13.68;88.29;101023.75;5071553;27;45986;-56
2024/03/18 06:07:42;;;;;;;;;23.75;17.50;;;;;13.64;88.49;101025.63;5078766;27;45243;-54
2024/03/18 06:10:07;;;;;;;;;17.25;16.25;;;;;13.60;88.64;101031.91;5068866;27;45387;-56
2024/03/18 06:12:32;;;;;;;;;21.50;16.75;;;;;13.56;88.77;101032.06;5076254;28;45372;-56
2024/03/18 06:14:58;;;;;;;;;22.75;17.75;;;;;13.50;89.09;101025.25;5066497;28;45614;-55
2024/03/18 06:17:23;;;;;;;;;26.75;20.25;;;;;13.46;88.80;101031.53;5080311;28;62235;-55
2024/03/18 06:19:57;;;;;;;;;20.25;18.00;;;;;13.44;89.65;101042.09;5079750;27;45391;-56
2024/03/18 06:22:23;;;;;;;;;20.00;16.25;;;;;13.44;89.46;101047.34;5076604;28;45359;-55
2024/03/18 06:27:33;;;;;;;;;25.25;22.50;;;;;13.48;89.74;101054.22;5070166;28;45270;-53
2024/03/18 06:29:58;;;;;;;;;19.25;16.50;;;;;13.51;89.37;101057.66;5077406;28;65688;-54
2024/03/18 06:32:23;;;;;;;;;25.75;19.75;;;;;13.49;89.79;101062.97;5073300;27;73053;-55
2024/03/18 06:34:49;;;;;;;;;22.00;17.75;;;;;13.46;89.48;101068.34;5069085;28;45367;-56
2024/03/18 06:37:14;;;;;;;;;19.00;17.00;;;;;13.43;89.34;101071.06;5077152;27;45322;-51
2024/03/18 06:39:40;;;;;;;;;17.50;16.00;;;;;13.41;89.38;101073.75;5087948;27;53598;-59
2024/03/18 06:42:05;;;;;;;;;23.25;16.25;;;;;13.37;89.88;101077.41;5079955;27;45513;-54
2024/03/18 06:44:30;;;;;;;;;23.75;16.50;;;;;13.35;89.89;101079.22;5068846;28;49117;-59
2024/03/18 06:46:56;;;;;;;;;60.25;48.25;;;;;13.32;89.63;101081.94;5065135;28;45488;-49
2024/03/18 06:49:21;;;;;;;;;28.50;20.50;;;;;13.28;90.08;101078.53;5071233;28;45354;-52
2024/03/18 06:51:48;;;;;;;;;19.75;16.75;;;;;13.30;90.28;101089.00;5065991;28;45315;-54
2024/03/18 06:54:13;;;;;;;;;22.00;16.50;;;;;13.26;90.40;101085.59;5061301;28;47007;-51
2024/03/18 06:56:39;;;;;;;;;21.75;16.00;;;;;13.30;89.96;101089.00;5068091;27;45382;-49
2024/03/18 06:59:04;;;;;;;;;18.50;15.50;;;;;13.29;90.18;101082.84;5060087;28;54519;-52
2024/03/18 07:01:29;;;;;;;;;30.75;25.25;;;;;13.36;90.13;101088.81;5067512;28;73148;-52
2024/03/18 07:03:55;;;;;;;;;16.75;13.75;;;;;13.40;90.49;101089.56;5059646;28;68382;-56
2024/03/18 07:06:20;;;;;;;;;18.00;17.50;;;;;13.43;90.36;101095.56;5070950;28;72196;-54
2024/03/18 07:08:46;;;;;;;;;17.75;16.25;;;;;13.44;90.00;101094.69;5076616;27;66100;-55
2024/03/18 07:11:11;;;;;;;;;20.50;16.25;;;;;13.44;90.16;101093.84;5072750;27;45472;-55
2024/03/18 07:13:38;;;;;;;;;18.75;15.25;;;;;13.45;90.19;101103.41;5070415;27;46261;-56
2024/03/18 07:16:04;;;;;;;;;18.75;15.25;;;;;13.48;89.95;101109.44;5069964;28;45409;-55
2024/03/18 07:18:29;;;;;;;;;17.50;16.00;;;;;13.54;89.69;101111.00;5059454;28;45491;-55
2024/03/18 07:20:55;;;;;;;;;22.00;16.75;;;;;13.57;89.54;101110.06;5077988;28;45398;-54
2024/03/18 07:23:22;;;;;;;;;19.50;16.50;;;;;13.63;89.73;101110.72;5073097;27;46145;-55
2024/03/18 07:25:47;;;;;;;;;18.75;15.00;;;;;13.70;89.21;101113.13;5078836;27;45847;-52
2024/03/18 07:28:13;;;;;;;;;17.25;14.00;;;;;13.75;88.76;101111.19;5082015;27;45440;-56
2024/03/18 07:30:39;;;;;;;;;13.50;11.00;;;;;13.79;88.69;101112.81;5073378;27;45394;-54
2024/03/18 07:33:06;;;;;;;;;18.25;11.75;;;;;13.85;88.57;101120.50;5051838;28;46642;-54
2024/03/18 07:35:32;;;;;;;;;19.50;15.00;;;;;13.91;88.50;101125.53;5066158;28;45221;-55
2024/03/18 07:37:57;;;;;;;;;20.00;16.00;;;;;13.99;88.13;101133.19;5067591;28;45720;-54
2024/03/18 07:40:22;;;;;;;;;18.00;15.00;;;;;14.07;87.79;101127.63;5058956;28;71871;-54
2024/03/18 07:42:48;;;;;;;;;15.25;13.00;;;;;14.09;87.16;101131.91;5052710;28;75548;-53
2024/03/18 07:45:13;;;;;;;;;19.75;13.25;;;;;14.13;86.81;101136.19;5054915;28;72157;-53
2024/03/18 07:47:38;;;;;;;;;14.50;13.75;;;;;14.15;86.80;101141.41;5052013;28;45433;-50
2024/03/18 07:50:04;;;;;;;;;18.25;13.00;;;;;14.19;86.50;101156.16;5057065;28;62721;-48
2024/03/18 07:52:32;;;;;;;;;17.00;11.75;;;;;14.25;86.08;101158.56;5058978;28;46308;-55
2024/03/18 07:55:00;;;;;;;;;14.00;11.50;;;;;14.33;85.81;101160.94;5059139;28;45939;-55
2024/03/18 07:57:25;;;;;;;;;11.00;10.00;;;;;14.42;85.42;101157.97;5054648;28;45263;-55
2024/03/18 07:59:51;;;;;;;;;9.75;9.50;;;;;14.50;84.77;101165.56;5058355;28;46999;-56
2024/03/18 08:02:16;;;;;;;;;13.75;11.75;;;;;14.55;83.96;101169.75;5053529;28;75770;-55
2024/03/18 08:04:41;;;;;;;;;11.00;7.00;;;;;14.57;82.82;101173.22;5048649;28;73200;-55
2024/03/18 08:07:06;;;;;;;;;12.25;9.00;;;;;14.63;82.33;101169.53;5058349;28;69319;-54
2024/03/18 08:09:32;;;;;;;;;13.00;11.00;;;;;14.70;82.65;101180.69;5047377;28;72113;-55
2024/03/18 08:11:57;;;;;;;;;7.25;7.00;;;;;14.78;82.09;101186.53;5039381;28;46388;-53
2024/03/18 08:14:22;;;;;;;;;11.00;9.00;;;;;14.86;81.26;101186.25;5036991;28;74936;-53
2024/03/18 08:16:48;;;;;;;;;7.50;7.00;;;;;14.87;81.32;101185.31;5044714;28;66289;-54
2024/03/18 08:19:13;;;;;;;;;8.50;7.75;;;;;14.90;80.65;101195.75;5061835;28;45379;-54
2024/03/18 08:21:38;;;;;;;;;10.50;7.25;;;;;14.95;80.57;101193.81;5047545;28;49979;-53
2024/03/18 08:24:04;;;;;;;;;12.00;8.75;;;;;14.99;80.18;101201.53;5055402;28;67818;-53
2024/03/18 08:26:33;;;;;;;;;9.00;6.50;;;;;15.04;79.70;101204.00;5048984;28;45352;-53
2024/03/18 08:29:01;;;;;;;;;7.00;4.75;;;;;15.09;79.44;101201.19;5042651;28;45429;-50
2024/03/18 08:31:27;;;;;;;;;10.75;7.50;;;;;15.15;78.77;101204.44;5042652;28;47388;-55
2024/03/18 08:33:55;;;;;;;;;8.00;6.25;;;;;15.17;78.82;101199.97;5043101;28;45865;-54
2024/03/18 08:36:24;;;;;;;;;8.75;8.50;;;;;15.17;78.15;101207.91;5050258;28;45310;-52
2024/03/18 08:38:50;;;;;;;;;12.00;7.50;;;;;15.22;78.48;101214.75;5055165;28;45552;-51
2024/03/18 08:41:15;;;;;;;;;6.75;6.00;;;;;15.23;77.66;101213.81;5059870;28;45413;-53
2024/03/18 08:43:41;;;;;;;;;10.75;7.50;;;;;15.28;77.55;101223.28;5050085;28;45332;-50
2024/03/18 08:46:06;;;;;;;;;9.50;8.00;;;;;15.35;77.48;101218.63;5050850;28;68276;-54
2024/03/18 08:48:32;;;;;;;;;7.25;6.75;;;;;15.37;77.17;101216.81;5041866;28;45276;-52
2024/03/18 08:50:58;;;;;;;;;11.25;7.50;;;;;15.41;76.87;101215.75;5049010;27;45656;-55
2024/03/18 08:53:23;;;;;;;;;10.75;7.50;;;;;15.49;76.66;101220.72;5050036;28;70692;-54
2024/03/18 08:55:49;;;;;;;;;10.50;6.00;;;;;15.57;76.55;101230.03;5041431;28;69422;-55
2024/03/18 08:58:14;;;;;;;;;7.50;4.75;;;;;15.62;76.19;101221.09;5042056;28;45350;-55
2024/03/18 09:00:40;;;;;;;;;6.00;4.00;;;;;15.60;75.63;101215.00;5058406;27;45656;-50
2024/03/18 09:03:05;;;;;;;;;6.50;3.75;;;;;15.51;75.04;101225.03;5077702;28;55403;-53
2024/03/18 09:05:31;;;;;;;;;9.25;6.25;;;;;15.44;74.58;101220.91;5059186;28;50204;-48
2024/03/18 09:07:57;;;;;;;;;7.75;4.25;;;;;15.43;74.70;101224.47;5049107;28;45523;-49
2024/03/18 09:10:23;;;;;;;;;6.00;5.00;;;;;15.46;74.46;101229.63;5044328;28;46401;-50
2024/03/18 09:12:48;;;;;;;;;6.25;5.25;;;;;15.49;74.04;101240.06;5041965;28;45405;-49
2024/03/18 09:15:14;;;;;;;;;8.75;5.00;;;;;15.56;74.05;101230.09;5041206;28;68360;-48
2024/03/18 09:17:40;;;;;;;;;5.50;4.50;;;;;15.63;73.88;101228.09;5042728;28;45802;-48
2024/03/18 09:20:09;;;;;;;;;5.50;4.00;;;;;15.61;73.75;101230.78;5042835;27;45400;-47
2024/03/18 09:22:34;;;;;;;;;9.25;5.25;;;;;15.59;73.28;101221.22;5048915;28;45404;-48
2024/03/18 09:25:03;;;;;;;;;5.00;4.00;;;;;15.60;73.67;101229.09;5061960;28;45402;-49
2024/03/18 09:27:28;;;;;;;;;10.00;6.00;;;;;15.54;73.90;101224.03;5059476;28;45430;-47
2024/03/18 09:29:54;;;;;;;;;3.75;3.50;;;;;15.57;73.55;101231.84;5061858;28;46212;-49
2024/03/18 09:32:19;;;;;;;;;6.50;5.00;;;;;15.66;74.21;101226.19;5062000;28;45268;-52
2024/03/18 09:34:45;;;;;;;;;8.25;3.25;;;;;15.79;73.17;101244.19;5077954;27;45274;-52
2024/03/18 09:37:10;;;;;;;;;5.25;3.00;;;;;15.86;72.81;101230.66;5060239;28;73252;-53
2024/03/18 09:39:38;;;;;;;;;2.75;2.00;;;;;15.89;72.42;101235.81;5069991;27;54137;-51
2024/03/18 09:42:04;;;;;;;;;6.00;2.50;;;;;15.90;72.36;101236.69;5056261;28;45944;-53
2024/03/18 09:44:31;;;;;;;;;6.75;5.00;;;;;15.90;72.00;101237.56;5044476;28;45288;-54
2024/03/18 09:46:58;;;;;;;;;3.00;1.75;;;;;15.96;71.59;101232.94;5041541;28;45514;-54
2024/03/18 09:49:25;;;;;;;;;2.00;2.00;;;;;15.94;70.97;101239.13;5043565;28;70082;-51
2024/03/18 09:51:51;;;;;;;;;3.00;3.00;;;;;15.97;71.03;101235.53;5061844;28;45648;-52
2024/03/18 09:54:19;;;;;;;;;4.00;3.00;;;;;15.98;70.91;101229.31;5048462;28;45436;-54
2024/03/18 09:56:54;;;;;;;;;12.00;8.00;;;;;16.08;71.30;101237.72;5052115;28;45529;-56
2024/03/18 09:59:19;;;;;;;;;8.00;4.00;;;;;16.20;70.92;101234.56;5061098;28;45380;-51
2024/03/18 10:01:45;;;;;;;;;6.25;6.25;;;;;16.24;70.23;101241.41;5060633;28;68981;-54
2024/03/18 10:04:10;;;;;;;;;6.25;4.75;;;;;16.26;69.52;101230.78;5061710;28;45399;-52
2024/03/18 10:06:35;;;;;;;;;8.00;6.75;;;;;16.31;69.49;101237.59;5057976;28;70180;-52
2024/03/18 10:09:01;;;;;;;;;6.50;4.75;;;;;16.42;69.42;101244.19;5049764;28;45345;-55
2024/03/18 10:11:26;;;;;;;;;8.25;4.00;;;;;16.52;68.55;101241.09;5040010;28;45372;-55
2024/03/18 10:13:52;;;;;;;;;8.00;5.00;;;;;16.63;68.71;101250.34;5051525;28;67213;-54
2024/03/18 10:16:18;;;;;;;;;5.00;4.00;;;;;16.69;67.97;101247.41;5047874;28;45508;-54
2024/03/18 10:18:45;;;;;;;;;3.75;2.50;;;;;16.73;67.47;101238.41;5060856;28;46558;-54
2024/03/18 10:21:10;;;;;;;;;4.00;3.25;;;;;16.73;66.96;101235.75;5059905;28;45704;-53
2024/03/18 10:23:36;;;;;;;;;6.25;4.50;;;;;16.77;67.07;101250.56;5053528;28;55361;-51
2024/03/18 10:26:01;;;;;;;;;3.00;2.50;;;;;16.81;66.25;101241.56;5056927;28;45248;-53
2024/03/18 10:28:27;;;;;;;;;4.25;3.50;;;;;16.96;65.80;101241.84;5060691;28;46166;-54
2024/03/18 10:30:55;;;;;;;;;4.75;2.75;;;;;17.11;65.74;101242.94;5059631;28;71290;-53
2024/03/18 10:33:22;;;;;;;;;3.50;3.00;;;;;17.17;65.40;101240.84;5060978;28;45389;-54
2024/03/18 10:35:48;;;;;;;;;5.25;3.00;;;;;17.29;65.40;101243.84;5059876;28;45344;-53
2024/03/18 10:38:24;;;;;;;;;2.50;2.50;;;;;17.38;64.79;101232.84;5060954;27;45359;-54
2024/03/18 10:40:55;;;;;;;;;1.75;1.75;;;;;17.52;64.52;101232.19;5056285;28;45632;-53
2024/03/18 10:43:32;;;;;;;;;3.00;2.50;;;;;17.58;63.67;101235.41;5053303;28;45336;-51
2024/03/18 10:45:58;;;;;;;;;8.25;6.00;;;;;17.59;63.18;101230.97;5044880;28;45318;-54
2024/03/18 10:48:25;;;;;;;;;4.75;3.25;;;;;17.59;62.72;101233.59;5040505;28;45383;-52
2024/03/18 10:50:52;;;;;;;;;4.00;2.75;;;;;17.56;62.39;101229.28;5052024;28;45726;-54
2024/03/18 10:53:20;;;;;;;;;2.00;2.00;;;;;17.53;62.19;101233.88;5059473;28;45307;-48
2024/03/18 10:55:48;;;;;;;;;4.75;2.75;;;;;17.53;61.78;101229.47;5060312;28;45325;-53
2024/03/18 10:58:14;;;;;;;;;4.50;3.00;;;;;17.61;61.62;101231.72;5060594;27;45315;-54
2024/03/18 11:00:40;;;;;;;;;5.00;3.25;;;;;17.73;61.33;101225.84;5059650;28;45280;-53
2024/03/18 11:03:22;;;;;;;;;23.25;17.75;;;;;17.89;61.04;101233.06;5048772;28;45534;-55
2024/03/18 11:05:47;;;;;;;;;4.25;2.00;;;;;18.00;60.60;101220.97;5054824;28;45326;-51
2024/03/18 11:08:13;;;;;;;;;4.75;2.00;;;;;18.10;60.52;101223.19;5056082;28;45374;-54
2024/03/18 11:10:39;;;;;;;;;5.50;2.50;;;;;18.25;60.82;101218.88;5041699;28;45423;-53
2024/03/18 11:13:11;;;;;;;;;4.25;3.25;;;;;18.46;59.97;101219.56;5038913;28;45418;-53
2024/03/18 11:15:57;;;;;;;;;1.00;1.00;;;;;18.67;59.55;101220.22;5040207;28;45269;-54